createdAt,value
2023-04-26T00:00:16.441Z,8.63
2023-04-26T00:02:43.176Z,7.05
2023-04-26T00:05:10.144Z,5.60
2023-04-26T00:07:38.206Z,6.53
2023-04-26T00:10:06.831Z,4.18
2023-04-26T00:12:33.473Z,10.82
2023-04-26T00:15:00.126Z,5.38
2023-04-26T00:17:26.764Z,5.28
2023-04-26T00:19:53.355Z,5.65
2023-04-26T00:22:20.326Z,4.68
2023-04-26T00:24:47.433Z,5.55
2023-04-26T00:27:14.085Z,7.70
2023-04-26T00:29:40.829Z,6.95
2023-04-26T00:32:07.524Z,5.80
2023-04-26T00:34:35.268Z,3.03
2023-04-26T00:37:02.980Z,7.43
2023-04-26T00:39:30.118Z,6.13
2023-04-26T00:41:57.168Z,5.18
2023-04-26T00:44:23.963Z,6.63
2023-04-26T00:46:52.842Z,7.68
2023-04-26T00:49:22.204Z,8.73
2023-04-26T00:51:49.833Z,5.57
2023-04-26T00:54:16.591Z,9.43
2023-04-26T00:56:43.542Z,6.88
2023-04-26T00:59:10.125Z,4.13
2023-04-26T01:01:37.900Z,3.80
2023-04-26T01:04:04.889Z,3.85
2023-04-26T01:06:34.704Z,6.13
2023-04-26T01:09:11.190Z,5.05
2023-04-26T01:11:38.327Z,8.07
2023-04-26T01:14:06.117Z,3.33
2023-04-26T01:16:33.897Z,8.93
2023-04-26T01:19:12.813Z,6.35
2023-04-26T01:21:40.739Z,4.65
2023-04-26T01:24:09.251Z,8.98
2023-04-26T01:26:36.997Z,7.63
2023-04-26T01:29:20.595Z,3.03
2023-04-26T01:31:48.192Z,7.30
2023-04-26T01:34:15.673Z,7.78
2023-04-26T01:36:42.706Z,9.50
2023-04-26T01:39:09.526Z,7.90
2023-04-26T01:41:36.599Z,9.48
2023-04-26T01:44:03.477Z,5.00
2023-04-26T01:46:30.173Z,7.70
2023-04-26T01:48:57.325Z,8.43
2023-04-26T01:51:24.001Z,20.42
2023-04-26T01:53:50.770Z,3.60
2023-04-26T01:56:18.354Z,7.65
2023-04-26T01:58:45.199Z,7.97
2023-04-26T02:01:12.029Z,8.13
2023-04-26T02:03:38.873Z,3.22
2023-04-26T02:06:05.658Z,5.30
2023-04-26T02:08:32.277Z,7.13
2023-04-26T02:10:59.213Z,5.35
2023-04-26T02:13:26.074Z,7.13
2023-04-26T02:15:53.110Z,12.27
2023-04-26T02:18:22.242Z,5.20
2023-04-26T02:20:49.033Z,5.38
2023-04-26T02:23:15.819Z,6.03
2023-04-26T02:25:47.450Z,7.57
2023-04-26T02:28:14.760Z,8.77
2023-04-26T02:30:41.748Z,7.20
2023-04-26T02:33:09.009Z,7.72
2023-04-26T02:35:37.382Z,5.38
2023-04-26T02:38:04.166Z,6.50
2023-04-26T02:40:30.802Z,4.53
2023-04-26T02:42:57.593Z,9.18
2023-04-26T02:45:24.331Z,8.60
2023-04-26T02:47:51.093Z,7.53
2023-04-26T02:50:17.816Z,8.45
2023-04-26T02:52:44.458Z,7.88
2023-04-26T02:55:11.083Z,6.55
2023-04-26T02:57:37.733Z,4.75
2023-04-26T03:00:05.634Z,5.68
2023-04-26T03:02:33.247Z,7.20
2023-04-26T03:05:00.130Z,9.40
2023-04-26T03:07:26.843Z,4.85
2023-04-26T03:09:53.588Z,11.50
2023-04-26T03:12:20.209Z,6.95
2023-04-26T03:14:46.871Z,4.88
2023-04-26T03:17:13.446Z,11.25
2023-04-26T03:19:40.127Z,10.18
2023-04-26T03:22:06.880Z,8.05
2023-04-26T03:24:33.492Z,4.35
2023-04-26T03:27:00.196Z,8.85
2023-04-26T03:29:27.096Z,8.25
2023-04-26T03:31:54.000Z,9.85
2023-04-26T03:34:20.889Z,4.80
2023-04-26T03:36:47.523Z,7.72
2023-04-26T03:39:14.270Z,7.53
2023-04-26T03:41:41.228Z,12.55
2023-04-26T03:44:07.934Z,8.48
2023-04-26T03:46:34.572Z,9.50
2023-04-26T03:49:01.147Z,15.10
2023-04-26T03:51:28.425Z,8.20
2023-04-26T03:53:55.567Z,7.25
2023-04-26T03:56:22.249Z,5.80
2023-04-26T03:58:48.833Z,8.10
2023-04-26T04:01:15.886Z,8.30
2023-04-26T04:03:42.779Z,9.27
2023-04-26T04:06:09.618Z,13.00
2023-04-26T04:08:36.218Z,13.05
2023-04-26T04:11:02.921Z,4.70
2023-04-26T04:13:29.653Z,11.35
2023-04-26T04:15:56.362Z,9.50
2023-04-26T04:18:23.007Z,9.32
2023-04-26T04:20:49.555Z,8.57
2023-04-26T04:23:16.558Z,11.10
2023-04-26T04:25:44.066Z,9.25
2023-04-26T04:28:12.008Z,5.40
2023-04-26T04:30:38.721Z,5.32
2023-04-26T04:33:05.700Z,5.28
2023-04-26T04:35:34.082Z,11.48
2023-04-26T04:38:01.756Z,6.97
2023-04-26T04:40:28.356Z,8.57
2023-04-26T04:42:55.638Z,7.93
2023-04-26T04:45:22.376Z,6.30
2023-04-26T04:47:49.044Z,5.95
2023-04-26T04:50:16.048Z,10.65
2023-04-26T04:52:42.769Z,8.43
2023-04-26T04:55:09.934Z,8.82
2023-04-26T04:57:37.012Z,10.32
2023-04-26T05:00:10.438Z,9.32
2023-04-26T05:02:37.637Z,9.02
2023-04-26T05:05:05.366Z,8.65
2023-04-26T05:07:32.653Z,7.80
2023-04-26T05:10:00.029Z,6.72
2023-04-26T05:12:26.834Z,3.30
2023-04-26T05:14:53.538Z,4.40
2023-04-26T05:17:20.295Z,12.27
2023-04-26T05:19:47.271Z,3.78
2023-04-26T05:22:18.469Z,9.30
2023-04-26T05:24:47.254Z,10.07
2023-04-26T05:27:14.573Z,10.85
2023-04-26T05:29:41.822Z,9.50
2023-04-26T05:32:08.793Z,3.55
2023-04-26T05:34:36.757Z,4.35
2023-04-26T05:37:03.610Z,8.20
2023-04-26T05:39:30.585Z,7.05
2023-04-26T05:41:57.356Z,6.85
2023-04-26T05:44:24.590Z,7.05
2023-04-26T05:46:51.428Z,6.65
2023-04-26T05:49:18.170Z,7.10
2023-04-26T05:51:44.817Z,6.70
2023-04-26T05:54:11.428Z,8.32
2023-04-26T05:56:38.037Z,5.93
2023-04-26T05:59:04.856Z,6.25
2023-04-26T06:01:31.590Z,8.88
2023-04-26T06:04:00.859Z,9.82
2023-04-26T06:06:28.390Z,11.18
2023-04-26T06:08:55.453Z,9.05
2023-04-26T06:11:22.327Z,9.60
2023-04-26T06:13:49.018Z,8.77
2023-04-26T06:16:16.433Z,14.15
2023-04-26T06:18:43.624Z,11.95
2023-04-26T06:21:10.489Z,11.55
2023-04-26T06:23:37.123Z,15.60
2023-04-26T06:26:03.880Z,8.75
2023-04-26T06:28:30.878Z,10.05
2023-04-26T06:30:57.579Z,12.15
2023-04-26T06:33:24.249Z,10.73
2023-04-26T06:35:51.426Z,8.43
2023-04-26T06:38:18.085Z,11.63
2023-04-26T06:40:44.673Z,10.48
2023-04-26T06:43:11.818Z,7.68
2023-04-26T06:45:39.390Z,11.15
2023-04-26T06:48:07.463Z,12.35
2023-04-26T06:50:37.265Z,9.52
2023-04-26T06:53:03.869Z,13.70
2023-04-26T06:55:30.476Z,6.80
2023-04-26T06:57:57.149Z,9.93
2023-04-26T07:00:23.827Z,8.85
2023-04-26T07:02:50.646Z,6.25
2023-04-26T07:05:17.494Z,9.10
2023-04-26T07:07:44.237Z,10.80
2023-04-26T07:10:11.189Z,10.45
2023-04-26T07:12:37.881Z,9.27
2023-04-26T07:15:06.620Z,10.30
2023-04-26T07:17:33.436Z,18.07
2023-04-26T07:20:00.064Z,11.60
2023-04-26T07:22:26.814Z,5.43
2023-04-26T07:24:53.443Z,9.05
2023-04-26T07:27:20.020Z,10.25
2023-04-26T07:29:46.822Z,10.20
2023-04-26T07:32:13.623Z,9.48
2023-04-26T07:34:41.085Z,14.27
2023-04-26T07:37:07.778Z,11.50
2023-04-26T07:39:34.405Z,8.88
2023-04-26T07:42:01.035Z,14.10
2023-04-26T07:44:27.779Z,5.20
2023-04-26T07:46:54.489Z,11.80
2023-04-26T07:49:21.165Z,13.68
2023-04-26T07:51:51.273Z,15.90
2023-04-26T07:54:18.018Z,12.65
2023-04-26T07:56:44.630Z,15.40
2023-04-26T07:59:11.391Z,7.63
2023-04-26T08:01:38.082Z,13.32
2023-04-26T08:04:05.365Z,9.27
2023-04-26T08:06:33.216Z,11.00
2023-04-26T08:08:59.856Z,10.90
2023-04-26T08:11:26.628Z,9.38
2023-04-26T08:13:53.583Z,6.13
2023-04-26T08:16:20.650Z,11.52
2023-04-26T08:18:47.895Z,8.88
2023-04-26T08:21:15.107Z,7.38
2023-04-26T08:23:41.860Z,9.38
2023-04-26T08:26:08.494Z,8.25
2023-04-26T08:28:35.855Z,8.30
2023-04-26T08:31:02.588Z,10.98
2023-04-26T08:33:29.312Z,9.88
2023-04-26T08:35:56.095Z,6.85
2023-04-26T08:38:23.016Z,7.93
2023-04-26T08:40:51.305Z,14.18
2023-04-26T08:43:18.158Z,7.80
2023-04-26T08:45:47.892Z,10.68
2023-04-26T08:50:48.795Z,6.47
2023-04-26T08:53:17.930Z,7.25
2023-04-26T08:55:49.367Z,6.07
2023-04-26T08:58:17.887Z,7.00
2023-04-26T09:00:45.993Z,5.53
2023-04-26T09:03:12.990Z,4.32
2023-04-26T09:05:43.883Z,4.72
2023-04-26T09:08:16.190Z,6.13
2023-04-26T09:10:43.088Z,6.65
2023-04-26T09:13:09.822Z,4.45
2023-04-26T09:15:36.768Z,6.05
2023-04-26T09:18:20.469Z,3.75
2023-04-26T09:21:08.283Z,5.95
2023-04-26T09:23:35.536Z,5.43
2023-04-26T09:26:19.389Z,5.35
2023-04-26T09:28:47.516Z,5.88
2023-04-26T09:31:38.676Z,4.82
2023-04-26T09:34:05.640Z,9.38
2023-04-26T09:36:32.400Z,2.83
2023-04-26T09:38:59.601Z,5.60
2023-04-26T09:41:43.864Z,3.67
2023-04-26T09:44:24.063Z,4.63
2023-04-26T09:47:09.963Z,8.45
2023-04-26T09:49:51.606Z,2.00
2023-04-26T09:52:19.418Z,5.10
2023-04-26T09:54:51.731Z,6.72
2023-04-26T09:57:19.919Z,5.95
2023-04-26T09:59:55.755Z,3.38
2023-04-26T10:02:27.175Z,8.75
2023-04-26T10:04:56.046Z,6.63
2023-04-26T10:07:25.208Z,3.92
2023-04-26T10:09:51.877Z,3.88
2023-04-26T10:12:20.128Z,5.13
2023-04-26T10:14:47.292Z,4.18
2023-04-26T10:17:14.413Z,5.40
2023-04-26T10:19:46.564Z,4.13
2023-04-26T10:22:21.446Z,3.13
2023-04-26T10:24:48.939Z,3.40
2023-04-26T10:27:16.247Z,3.58
2023-04-26T10:29:55.400Z,4.20
2023-04-26T10:32:22.926Z,4.35
2023-04-26T10:35:13.814Z,4.70
2023-04-26T10:38:03.710Z,4.63
2023-04-26T10:40:31.976Z,2.47
2023-04-26T10:43:14.691Z,5.13
2023-04-26T10:45:43.343Z,4.57
2023-04-26T10:48:30.474Z,5.93
2023-04-26T10:51:00.155Z,6.70
2023-04-26T10:55:56.674Z,8.60
2023-04-26T10:58:34.343Z,4.60
2023-04-26T11:01:17.581Z,6.45
2023-04-26T11:04:04.987Z,9.05
2023-04-26T11:06:51.851Z,4.20
2023-04-26T11:09:48.072Z,5.00
2023-04-26T11:12:16.431Z,4.50
2023-04-26T11:14:45.434Z,9.05
2023-04-26T11:17:13.216Z,6.25
2023-04-26T11:19:41.615Z,7.05
2023-04-26T11:22:08.850Z,6.00
2023-04-26T11:24:36.795Z,3.33
2023-04-26T11:27:09.837Z,4.90
2023-04-26T11:29:36.879Z,7.82
2023-04-26T11:32:04.100Z,6.43
2023-04-26T11:34:35.523Z,4.88
2023-04-26T11:37:04.623Z,6.03
2023-04-26T11:39:35.569Z,3.20
2023-04-26T11:42:07.118Z,7.10
2023-04-26T11:44:34.089Z,6.68
2023-04-26T11:47:03.864Z,4.00
2023-04-26T11:49:31.773Z,3.75
2023-04-26T11:51:58.996Z,6.10
2023-04-26T11:54:33.428Z,6.07
2023-04-26T11:57:00.980Z,6.57
2023-04-26T11:59:29.221Z,3.97
2023-04-26T12:01:57.435Z,5.28
2023-04-26T12:04:31.875Z,5.88
2023-04-26T12:06:59.003Z,5.63
2023-04-26T12:09:29.893Z,4.05
2023-04-26T12:12:01.027Z,4.07
2023-04-26T12:14:35.477Z,4.07
2023-04-26T12:17:03.476Z,5.20
2023-04-26T12:19:37.142Z,4.97
2023-04-26T12:22:04.695Z,2.50
2023-04-26T12:24:37.223Z,5.00
2023-04-26T12:27:06.570Z,6.00
2023-04-26T12:32:00.588Z,4.90
2023-04-26T12:34:27.789Z,4.05
2023-04-26T12:36:54.858Z,3.72
2023-04-26T12:39:21.678Z,4.28
2023-04-26T12:41:49.064Z,3.70
2023-04-26T12:44:15.826Z,6.18
2023-04-26T12:46:42.733Z,4.40
2023-04-26T12:49:09.442Z,6.90
2023-04-26T12:51:36.143Z,4.85
2023-04-26T12:54:03.055Z,5.95
2023-04-26T12:56:30.016Z,4.70
2023-04-26T12:58:57.011Z,10.32
2023-04-26T13:01:23.686Z,4.00
2023-04-26T13:03:50.635Z,6.47
2023-04-26T13:06:17.848Z,9.73
2023-04-26T13:08:44.538Z,12.38
2023-04-26T13:11:11.124Z,7.93
2023-04-26T13:13:43.726Z,4.32
2023-04-26T13:16:12.535Z,4.78
2023-04-26T13:18:40.255Z,4.72
2023-04-26T13:21:07.486Z,8.05
2023-04-26T13:23:34.103Z,8.30
2023-04-26T13:26:00.668Z,5.35
2023-04-26T13:28:27.351Z,6.60
2023-04-26T13:30:54.175Z,6.07
2023-04-26T13:33:21.456Z,3.05
2023-04-26T13:35:48.582Z,5.07
2023-04-26T13:38:16.024Z,2.78
2023-04-26T13:40:43.323Z,5.18
2023-04-26T13:43:09.922Z,3.33
2023-04-26T13:45:36.762Z,3.83
2023-04-26T13:48:03.669Z,4.03
2023-04-26T13:50:30.450Z,6.13
2023-04-26T13:52:57.136Z,4.88
2023-04-26T13:55:24.138Z,3.20
2023-04-26T13:57:51.039Z,5.65
2023-04-26T14:00:18.004Z,4.00
2023-04-26T14:02:44.914Z,7.90
2023-04-26T14:05:11.943Z,6.70
2023-04-26T14:07:39.237Z,5.85
2023-04-26T14:10:06.693Z,6.90
2023-04-26T14:12:33.769Z,4.10
2023-04-26T14:15:04.026Z,6.93
2023-04-26T14:17:32.363Z,4.40
2023-04-26T14:19:59.111Z,8.52
2023-04-26T14:22:26.994Z,6.30
2023-04-26T14:24:53.769Z,4.38
2023-04-26T14:27:20.795Z,6.97
2023-04-26T14:29:47.658Z,4.38
2023-04-26T14:32:14.387Z,6.60
2023-04-26T14:34:41.908Z,6.50
2023-04-26T14:37:08.977Z,5.13
2023-04-26T14:39:35.774Z,6.68
2023-04-26T14:42:03.245Z,5.35
2023-04-26T14:44:30.340Z,5.72
2023-04-26T14:46:56.969Z,9.80
2023-04-26T14:49:23.801Z,4.30
2023-04-26T14:51:53.125Z,11.10
2023-04-26T14:54:21.027Z,4.30
2023-04-26T14:56:48.414Z,4.88
2023-04-26T14:59:15.077Z,5.22
2023-04-26T15:01:41.710Z,4.07
2023-04-26T15:04:08.534Z,3.67
2023-04-26T15:06:35.445Z,9.35
2023-04-26T15:09:02.129Z,9.48
2023-04-26T15:11:28.748Z,5.85
2023-04-26T15:13:55.399Z,7.10
2023-04-26T15:16:22.804Z,7.47
2023-04-26T15:18:49.583Z,3.42
2023-04-26T15:21:17.477Z,4.13
2023-04-26T15:23:44.110Z,5.93
2023-04-26T15:26:10.743Z,7.80
2023-04-26T15:28:37.507Z,4.60
2023-04-26T15:31:11.264Z,9.57
2023-04-26T15:33:38.143Z,8.45
2023-04-26T15:36:05.357Z,5.82
2023-04-26T15:38:34.164Z,9.77
2023-04-26T15:41:00.918Z,4.88
2023-04-26T15:43:27.551Z,5.47
2023-04-26T15:45:54.400Z,9.18
2023-04-26T15:48:21.144Z,7.22
2023-04-26T15:50:47.883Z,6.43
2023-04-26T15:53:14.462Z,6.95
2023-04-26T15:55:41.517Z,6.45
2023-04-26T15:58:08.124Z,6.82
2023-04-26T16:00:36.403Z,8.30
2023-04-26T16:03:03.273Z,5.57
2023-04-26T16:05:31.546Z,4.57
2023-04-26T16:07:59.532Z,5.95
2023-04-26T16:10:26.374Z,8.07
2023-04-26T16:12:53.012Z,5.50
2023-04-26T16:15:19.808Z,4.55
2023-04-26T16:17:46.538Z,7.82
2023-04-26T16:20:13.362Z,7.50
2023-04-26T16:22:40.351Z,3.90
2023-04-26T16:25:08.966Z,7.25
2023-04-26T16:27:35.638Z,7.10
2023-04-26T16:30:02.624Z,4.65
2023-04-26T16:32:30.673Z,6.03
2023-04-26T16:34:57.342Z,9.60
2023-04-26T16:37:24.077Z,6.15
2023-04-26T16:39:55.628Z,6.50
2023-04-26T16:42:22.337Z,5.25
2023-04-26T16:44:49.059Z,3.22
2023-04-26T16:47:15.954Z,8.23
2023-04-26T16:49:42.521Z,6.10
2023-04-26T16:52:09.207Z,9.40
2023-04-26T16:54:35.845Z,4.85
2023-04-26T16:57:03.730Z,7.22
2023-04-26T16:59:30.556Z,6.72
2023-04-26T17:01:57.277Z,4.95
2023-04-26T17:04:24.189Z,9.85
2023-04-26T17:06:50.989Z,4.93
2023-04-26T17:09:18.514Z,6.72
2023-04-26T17:11:46.502Z,10.00
2023-04-26T17:14:13.481Z,7.13
2023-04-26T17:16:40.356Z,7.28
2023-04-26T17:19:07.055Z,8.07
2023-04-26T17:21:33.654Z,4.85
2023-04-26T17:24:00.489Z,5.05
2023-04-26T17:26:27.637Z,6.28
2023-04-26T17:28:54.554Z,7.13
2023-04-26T17:31:21.290Z,3.55
2023-04-26T17:33:48.194Z,7.47
2023-04-26T17:36:14.820Z,8.82
2023-04-26T17:38:41.564Z,5.35
2023-04-26T17:41:08.214Z,10.88
2023-04-26T17:43:34.850Z,6.75
2023-04-26T17:46:01.577Z,14.25
2023-04-26T17:48:29.030Z,7.95
2023-04-26T17:50:56.081Z,7.85
2023-04-26T17:53:22.857Z,8.68
2023-04-26T17:55:49.550Z,8.50
2023-04-26T17:58:16.168Z,8.27
2023-04-26T18:00:43.174Z,9.32
2023-04-26T18:03:11.834Z,11.43
2023-04-26T18:05:38.843Z,7.40
2023-04-26T18:08:05.722Z,10.70
2023-04-26T18:10:32.804Z,16.48
2023-04-26T18:12:59.479Z,9.55
2023-04-26T18:15:26.280Z,8.45
2023-04-26T18:17:53.562Z,9.35
2023-04-26T18:20:20.213Z,10.23
2023-04-26T18:22:47.011Z,8.70
2023-04-26T18:25:13.780Z,9.88
2023-04-26T18:27:40.470Z,11.32
2023-04-26T18:30:08.167Z,8.75
2023-04-26T18:32:35.044Z,10.77
2023-04-26T18:35:04.812Z,9.18
2023-04-26T18:39:58.451Z,6.68
2023-04-26T18:42:25.312Z,8.10
2023-04-26T18:44:51.940Z,12.48
2023-04-26T18:47:18.709Z,7.97
2023-04-26T18:49:45.412Z,10.45
2023-04-26T18:52:12.044Z,7.10
2023-04-26T18:54:38.952Z,4.43
2023-04-26T18:57:05.721Z,4.30
2023-04-26T18:59:32.491Z,9.18
2023-04-26T19:01:59.450Z,13.90
2023-04-26T19:04:26.402Z,6.00
2023-04-26T19:06:53.391Z,8.95
2023-04-26T19:09:20.119Z,8.25
2023-04-26T19:11:46.761Z,5.88
2023-04-26T19:14:13.438Z,6.10
2023-04-26T19:16:40.263Z,9.90
2023-04-26T19:19:06.872Z,9.57
2023-04-26T19:21:35.030Z,6.05
2023-04-26T19:24:01.645Z,4.75
2023-04-26T19:26:28.321Z,7.50
2023-04-26T19:28:55.737Z,5.70
2023-04-26T19:31:22.811Z,12.57
2023-04-26T19:33:49.478Z,7.70
2023-04-26T19:36:16.198Z,7.80
2023-04-26T19:38:42.965Z,7.22
2023-04-26T19:41:09.590Z,11.32
2023-04-26T19:43:36.355Z,9.15
2023-04-26T19:46:14.070Z,10.45
2023-04-26T19:48:41.126Z,18.05
2023-04-26T19:51:07.843Z,12.50
2023-04-26T19:53:35.375Z,9.18
2023-04-26T19:56:02.105Z,7.90
2023-04-26T19:58:28.699Z,25.30
2023-04-26T20:00:55.529Z,8.30
2023-04-26T20:03:22.290Z,9.52
2023-04-26T20:05:49.475Z,7.80
2023-04-26T20:08:16.722Z,8.52
2023-04-26T20:10:43.398Z,9.70
2023-04-26T20:13:10.032Z,12.15
2023-04-26T20:15:36.775Z,9.27
2023-04-26T20:18:03.589Z,8.73
2023-04-26T20:20:30.631Z,11.40
2023-04-26T20:22:57.289Z,10.15
2023-04-26T20:25:24.150Z,11.70
2023-04-26T20:27:50.992Z,32.42
2023-04-26T20:30:17.778Z,15.77
2023-04-26T20:32:44.491Z,12.32
2023-04-26T20:35:13.506Z,24.73
2023-04-26T20:37:40.190Z,34.55
2023-04-26T20:40:07.961Z,33.45
2023-04-26T20:42:34.681Z,34.08
2023-04-26T20:45:02.507Z,17.98
2023-04-26T20:47:30.091Z,9.25
2023-04-26T20:49:56.762Z,13.13
2023-04-26T20:52:23.431Z,12.55
2023-04-26T20:54:50.172Z,8.65
2023-04-26T20:57:16.971Z,16.17
2023-04-26T20:59:43.685Z,12.25
2023-04-26T21:02:11.394Z,13.77
2023-04-26T21:04:41.553Z,9.30
2023-04-26T21:07:09.397Z,11.43
2023-04-26T21:09:36.060Z,20.25
2023-04-26T21:12:03.256Z,15.50
2023-04-26T21:14:30.735Z,18.25
2023-04-26T21:16:57.550Z,26.95
2023-04-26T21:19:24.299Z,16.75
2023-04-26T21:21:51.106Z,30.15
2023-04-26T21:24:18.088Z,36.58
2023-04-26T21:26:44.832Z,30.55
2023-04-26T21:29:12.382Z,37.03
2023-04-26T21:31:39.070Z,54.95
2023-04-26T21:34:05.907Z,48.90
2023-04-26T21:36:32.604Z,57.78
2023-04-26T21:38:59.330Z,41.88
2023-04-26T21:41:26.116Z,53.97
2023-04-26T21:43:56.027Z,48.95
2023-04-26T21:46:22.805Z,39.50
2023-04-26T21:48:49.534Z,16.92
2023-04-26T21:51:16.229Z,26.80
2023-04-26T21:53:43.280Z,49.60
2023-04-26T21:56:10.099Z,73.72
2023-04-26T21:58:36.866Z,148.55
2023-04-26T22:01:07.937Z,58.35
2023-04-26T22:03:34.730Z,93.40
2023-04-26T22:06:01.413Z,44.00
2023-04-26T22:08:28.129Z,41.08
2023-04-26T22:10:54.736Z,53.65
2023-04-26T22:13:21.370Z,57.58
2023-04-26T22:15:48.227Z,50.75
2023-04-26T22:18:15.617Z,61.03
2023-04-26T22:20:42.316Z,31.00
2023-04-26T22:23:09.507Z,22.83
2023-04-26T22:25:36.378Z,11.50
2023-04-26T22:28:03.126Z,29.67
2023-04-26T22:30:29.793Z,22.77
2023-04-26T22:32:59.390Z,22.17
2023-04-26T22:37:54.945Z,45.78
2023-04-26T22:40:21.556Z,29.40
2023-04-26T22:42:48.204Z,9.60
2023-04-26T22:45:14.846Z,4.97
2023-04-26T22:47:41.591Z,5.13
2023-04-26T22:50:08.832Z,7.68
2023-04-26T22:52:36.343Z,9.98
2023-04-26T22:55:03.094Z,7.15
2023-04-26T22:57:31.200Z,7.15
2023-04-26T22:59:58.272Z,8.73
2023-04-26T23:02:25.143Z,4.70
2023-04-26T23:04:51.957Z,10.75
2023-04-26T23:07:18.694Z,10.68
2023-04-26T23:09:45.594Z,10.65
2023-04-26T23:12:16.247Z,8.77
2023-04-26T23:14:43.190Z,6.35
2023-04-26T23:17:11.894Z,25.58
2023-04-26T23:19:38.660Z,23.23
2023-04-26T23:22:05.370Z,12.02
2023-04-26T23:24:32.038Z,10.27
2023-04-26T23:26:58.628Z,8.95
2023-04-26T23:29:25.218Z,8.43
2023-04-26T23:31:51.842Z,10.90
2023-04-26T23:34:18.512Z,9.68
2023-04-26T23:36:45.093Z,7.80
2023-04-26T23:39:12.453Z,5.70
2023-04-26T23:41:39.399Z,7.00
2023-04-26T23:44:06.032Z,5.90
2023-04-26T23:46:33.016Z,7.20
2023-04-26T23:48:59.722Z,4.40
2023-04-26T23:51:27.524Z,9.48
2023-04-26T23:53:54.417Z,6.20
2023-04-26T23:56:21.319Z,8.88
2023-04-26T23:58:47.963Z,5.95
